createdAt,value
2019-04-01T00:00:58.534Z,99078.00
2019-04-01T00:03:27.671Z,99067.00
2019-04-01T00:05:56.791Z,99079.00
2019-04-01T00:08:25.931Z,99083.00
2019-04-01T00:10:54.986Z,99078.00
2019-04-01T00:13:24.064Z,99074.00
2019-04-01T00:15:53.093Z,99071.00
2019-04-01T00:18:22.148Z,99080.00
2019-04-01T00:20:51.286Z,99072.00
2019-04-01T00:23:20.278Z,99072.00
2019-04-01T00:25:49.418Z,99074.00
2019-04-01T00:28:18.478Z,99076.00
2019-04-01T00:30:47.523Z,99070.00
2019-04-01T00:33:16.652Z,99072.00
2019-04-01T00:35:47.959Z,99070.00
2019-04-01T00:38:17.168Z,99069.00
2019-04-01T00:40:46.303Z,99065.00
2019-04-01T00:43:19.964Z,99074.00
2019-04-01T00:45:49.422Z,99069.00
2019-04-01T00:48:18.435Z,99063.00
2019-04-01T00:50:47.895Z,99072.00
2019-04-01T00:53:18.115Z,99069.00
2019-04-01T00:55:47.396Z,99074.00
2019-04-01T00:58:16.384Z,99069.00
2019-04-01T01:00:45.591Z,99064.00
2019-04-01T01:03:14.837Z,99060.00
2019-04-01T01:05:43.825Z,99050.00
2019-04-01T01:08:13.022Z,99064.00
2019-04-01T01:10:42.367Z,99066.00
2019-04-01T01:13:11.376Z,99056.00
2019-04-01T01:15:40.460Z,99063.00
2019-04-01T01:18:09.600Z,99056.00
2019-04-01T01:20:38.647Z,99061.00
2019-04-01T01:23:07.788Z,99047.00
2019-04-01T01:25:36.932Z,99051.00
2019-04-01T01:28:05.919Z,99049.00
2019-04-01T01:30:35.057Z,99049.00
2019-04-01T01:33:04.062Z,99050.00
2019-04-01T01:35:33.972Z,99052.00
2019-04-01T01:38:03.020Z,99047.00
2019-04-01T01:40:32.015Z,99050.00
2019-04-01T01:43:01.045Z,99041.00
2019-04-01T01:45:30.169Z,99041.00
2019-04-01T01:47:59.165Z,99038.00
2019-04-01T01:50:28.245Z,99047.00
2019-04-01T01:52:57.671Z,99040.00
2019-04-01T01:55:26.725Z,99034.00
2019-04-01T01:57:55.790Z,99037.00
2019-04-01T02:00:26.177Z,99038.00
2019-04-01T02:02:55.407Z,99036.00
2019-04-01T02:05:24.391Z,99032.00
2019-04-01T02:07:53.553Z,99040.00
2019-04-01T02:10:22.586Z,99036.00
2019-04-01T02:12:51.932Z,99039.00
2019-04-01T02:15:21.136Z,99026.00
2019-04-01T02:17:50.128Z,99027.00
2019-04-01T02:20:19.137Z,99028.00
2019-04-01T02:22:48.369Z,99025.00
2019-04-01T02:25:17.522Z,99031.00
2019-04-01T02:27:46.583Z,99034.00
2019-04-01T02:30:15.665Z,99021.00
2019-04-01T02:32:45.068Z,99023.00
2019-04-01T02:35:14.315Z,99023.00
2019-04-01T02:37:43.520Z,99021.00
2019-04-01T02:40:12.603Z,99014.00
2019-04-01T02:42:41.734Z,99009.00
2019-04-01T02:45:10.912Z,99021.00
2019-04-01T02:47:40.121Z,99019.00
2019-04-01T02:50:09.353Z,99012.00
2019-04-01T02:52:38.409Z,99019.00
2019-04-01T02:55:07.679Z,99020.00
2019-04-01T02:57:36.934Z,99006.00
2019-04-01T03:00:06.405Z,99007.00
2019-04-01T03:02:35.482Z,99010.00
2019-04-01T03:05:04.950Z,99010.00
2019-04-01T03:07:34.146Z,99012.00
2019-04-01T03:10:03.586Z,99019.00
2019-04-01T03:12:32.620Z,99022.00
2019-04-01T03:15:01.794Z,99019.00
2019-04-01T03:17:30.986Z,99011.00
2019-04-01T03:20:00.748Z,99025.00
2019-04-01T03:22:29.893Z,99016.00
2019-04-01T03:24:59.403Z,99020.00
2019-04-01T03:27:29.306Z,99022.00
2019-04-01T03:29:58.845Z,99017.00
2019-04-01T03:32:28.591Z,99021.00
2019-04-01T03:34:58.163Z,99014.00
2019-04-01T03:37:27.380Z,99015.00
2019-04-01T03:39:56.365Z,99027.00
2019-04-01T03:42:27.606Z,99017.00
2019-04-01T03:44:56.902Z,99017.00
2019-04-01T03:47:26.264Z,99019.00
2019-04-01T03:49:55.312Z,99022.00
2019-04-01T03:52:24.341Z,99018.00
2019-04-01T03:54:53.622Z,99018.00
2019-04-01T03:57:22.777Z,99021.00
2019-04-01T03:59:51.987Z,99015.00
2019-04-01T04:02:21.126Z,99014.00
2019-04-01T04:04:50.673Z,99031.00
2019-04-01T04:07:20.148Z,99011.00
2019-04-01T04:09:49.373Z,99020.00
2019-04-01T04:12:18.626Z,99005.00
2019-04-01T04:14:51.161Z,99012.00
2019-04-01T04:17:18.677Z,99016.00
2019-04-01T04:19:47.794Z,99010.00
2019-04-01T04:22:17.119Z,99014.00
2019-04-01T04:24:46.242Z,99014.00
2019-04-01T04:27:15.361Z,99018.00
2019-04-01T04:29:44.510Z,99019.00
2019-04-01T04:32:13.920Z,99012.00
2019-04-01T04:34:43.186Z,99019.00
2019-04-01T04:37:12.402Z,99008.00
2019-04-01T04:39:41.537Z,99010.00
2019-04-01T04:42:10.616Z,99008.00
2019-04-01T04:44:39.601Z,99007.00
2019-04-01T04:47:08.741Z,99008.00
2019-04-01T04:49:38.037Z,99005.00
2019-04-01T04:52:07.172Z,99010.00
2019-04-01T04:54:36.442Z,99012.00
2019-04-01T04:57:05.620Z,99012.00
2019-04-01T04:59:34.888Z,99025.00
2019-04-01T05:02:03.975Z,99016.00
2019-04-01T05:04:33.280Z,99013.00
2019-04-01T05:07:02.444Z,99025.00
2019-04-01T05:09:31.645Z,99028.00
2019-04-01T05:12:02.682Z,99033.00
2019-04-01T05:14:31.745Z,99032.00
2019-04-01T05:17:00.900Z,99033.00
2019-04-01T05:19:30.043Z,99039.00
2019-04-01T05:21:59.299Z,99033.00
2019-04-01T05:24:28.437Z,99043.00
2019-04-01T05:26:58.160Z,99042.00
2019-04-01T05:29:27.336Z,99033.00
2019-04-01T05:31:56.480Z,99033.00
2019-04-01T05:34:25.821Z,99037.00
2019-04-01T05:36:55.060Z,99042.00
2019-04-01T05:39:24.409Z,99051.00
2019-04-01T05:41:53.419Z,99041.00
2019-04-01T05:44:22.842Z,99044.00
2019-04-01T05:46:52.424Z,99049.00
2019-04-01T05:49:21.478Z,99055.00
2019-04-01T05:51:50.637Z,99065.00
2019-04-01T05:54:19.696Z,99065.00
2019-04-01T05:56:48.853Z,99065.00
2019-04-01T05:59:18.057Z,99065.00
2019-04-01T06:01:47.998Z,99065.00
2019-04-01T06:04:17.053Z,99059.00
2019-04-01T06:06:48.848Z,99063.00
2019-04-01T06:09:17.159Z,99069.00
2019-04-01T06:11:46.755Z,99066.00
2019-04-01T06:14:15.977Z,99078.00
2019-04-01T06:16:45.171Z,99078.00
2019-04-01T06:19:14.447Z,99070.00
2019-04-01T06:21:43.513Z,99078.00
2019-04-01T06:24:12.664Z,99080.00
2019-04-01T06:26:41.819Z,99079.00
2019-04-01T06:29:10.962Z,99091.00
2019-04-01T06:31:40.110Z,99074.00
2019-04-01T06:34:09.495Z,99086.00
2019-04-01T06:36:38.952Z,99079.00
2019-04-01T06:39:08.331Z,99076.00
2019-04-01T06:41:37.389Z,99079.00
2019-04-01T06:44:06.456Z,99076.00
2019-04-01T06:46:35.420Z,99074.00
2019-04-01T06:49:04.664Z,99068.00
2019-04-01T06:51:33.649Z,99074.00
2019-04-01T06:54:02.789Z,99070.00
2019-04-01T06:56:31.951Z,99070.00
2019-04-01T06:59:00.956Z,99063.00
2019-04-01T07:01:30.101Z,99056.00
2019-04-01T07:03:59.170Z,99054.00
2019-04-01T07:06:28.230Z,99067.00
2019-04-01T07:08:57.284Z,99058.00
2019-04-01T07:11:29.234Z,99067.00
2019-04-01T07:13:58.289Z,99065.00
2019-04-01T07:16:27.345Z,99064.00
2019-04-01T07:18:56.699Z,99061.00
2019-04-01T07:21:25.831Z,99053.00
2019-04-01T07:23:54.972Z,99060.00
2019-04-01T07:26:23.989Z,99069.00
2019-04-01T07:28:53.476Z,99058.00
2019-04-01T07:31:22.532Z,99057.00
2019-04-01T07:33:51.673Z,99053.00
2019-04-01T07:36:20.726Z,99063.00
2019-04-01T07:38:49.804Z,99062.00
2019-04-01T07:41:19.039Z,99043.00
2019-04-01T07:43:48.094Z,99053.00
2019-04-01T07:46:17.143Z,99054.00
2019-04-01T07:48:46.492Z,99052.00
2019-04-01T07:51:15.660Z,99063.00
2019-04-01T07:53:45.297Z,99053.00
2019-04-01T07:56:14.436Z,99057.00
2019-04-01T07:58:44.082Z,99051.00
2019-04-01T08:01:13.362Z,99065.00
2019-04-01T08:03:42.457Z,99059.00
2019-04-01T08:06:11.518Z,99056.00
2019-04-01T08:08:40.819Z,99061.00
2019-04-01T08:11:09.808Z,99062.00
2019-04-01T08:13:38.879Z,99054.00
2019-04-01T08:16:08.288Z,99049.00
2019-04-01T08:18:37.416Z,99059.00
2019-04-01T08:21:06.650Z,99052.00
2019-04-01T08:23:35.986Z,99053.00
2019-04-01T08:26:05.398Z,99051.00
2019-04-01T08:28:34.631Z,99048.00
2019-04-01T08:31:03.742Z,99038.00
2019-04-01T08:33:32.752Z,99034.00
2019-04-01T08:36:01.849Z,99029.00
2019-04-01T08:38:30.897Z,99036.00
2019-04-01T08:41:00.073Z,99036.00
2019-04-01T08:43:29.293Z,99026.00
2019-04-01T08:45:58.290Z,99024.00
2019-04-01T08:48:27.351Z,99030.00
2019-04-01T08:50:56.403Z,99026.00
2019-04-01T08:53:31.179Z,99024.00
2019-04-01T08:56:01.229Z,99018.00
2019-04-01T08:58:30.495Z,99024.00
2019-04-01T09:00:59.484Z,99028.00
2019-04-01T09:03:28.878Z,99022.00
2019-04-01T09:05:58.044Z,99016.00
2019-04-01T09:08:27.726Z,99019.00
2019-04-01T09:10:56.779Z,99018.00
2019-04-01T09:13:26.155Z,99017.00
2019-04-01T09:15:55.478Z,99018.00
2019-04-01T09:18:24.572Z,99004.00
2019-04-01T09:20:53.627Z,99007.00
2019-04-01T09:23:22.712Z,99012.00
2019-04-01T09:25:51.860Z,99001.00
2019-04-01T09:28:21.152Z,98999.00
2019-04-01T09:30:50.288Z,98989.00
2019-04-01T09:33:19.396Z,98993.00
2019-04-01T09:35:48.526Z,98989.00
2019-04-01T09:38:17.694Z,98994.00
2019-04-01T09:40:46.891Z,98984.00
2019-04-01T09:43:16.119Z,98989.00
2019-04-01T09:45:45.123Z,98984.00
2019-04-01T09:48:14.244Z,98981.00
2019-04-01T09:50:43.301Z,98980.00
2019-04-01T09:53:12.421Z,98971.00
2019-04-01T09:55:41.489Z,98969.00
2019-04-01T09:58:10.573Z,98968.00
2019-04-01T10:00:39.574Z,98962.00
2019-04-01T10:03:08.642Z,98958.00
2019-04-01T10:05:37.947Z,98970.00
2019-04-01T10:08:07.031Z,98960.00
2019-04-01T10:10:36.204Z,98957.00
2019-04-01T10:13:05.277Z,98962.00
2019-04-01T10:15:34.452Z,98963.00
2019-04-01T10:18:03.660Z,98954.00
2019-04-01T10:20:32.808Z,98954.00
2019-04-01T10:23:01.920Z,98942.00
2019-04-01T10:25:31.139Z,98948.00
2019-04-01T10:28:00.338Z,98956.00
2019-04-01T10:30:30.050Z,98943.00
2019-04-01T10:33:02.097Z,98935.00
2019-04-01T10:35:29.972Z,98947.00
2019-04-01T10:37:59.120Z,98942.00
2019-04-01T10:40:28.216Z,98935.00
2019-04-01T10:42:57.384Z,98929.00
2019-04-01T10:45:26.395Z,98932.00
2019-04-01T10:47:56.276Z,98929.00
2019-04-01T10:50:25.632Z,98918.00
2019-04-01T10:52:54.703Z,98912.00
2019-04-01T10:55:23.953Z,98917.00
2019-04-01T10:57:54.154Z,98916.00
2019-04-01T11:00:23.979Z,98916.00
2019-04-01T11:02:53.227Z,98911.00
2019-04-01T11:05:22.303Z,98901.00
2019-04-01T11:07:51.402Z,98898.00
2019-04-01T11:10:20.394Z,98892.00
2019-04-01T11:12:49.579Z,98892.00
2019-04-01T11:15:20.188Z,98894.00
2019-04-01T11:17:52.310Z,98896.00
2019-04-01T11:20:20.322Z,98894.00
2019-04-01T11:22:49.312Z,98891.00
2019-04-01T11:25:18.306Z,98879.00
2019-04-01T11:27:47.380Z,98879.00
2019-04-01T11:30:17.632Z,98878.00
2019-04-01T11:32:46.754Z,98869.00
2019-04-01T11:35:16.258Z,98869.00
2019-04-01T11:37:45.756Z,98865.00
2019-04-01T11:40:14.853Z,98873.00
2019-04-01T11:42:43.920Z,98859.00
2019-04-01T11:45:13.301Z,98854.00
2019-04-01T11:47:42.449Z,98852.00
2019-04-01T11:50:11.691Z,98847.00
2019-04-01T11:52:40.762Z,98842.00
2019-04-01T11:55:09.904Z,98847.00
2019-04-01T11:57:39.786Z,98834.00
2019-04-01T12:00:13.260Z,98831.00
2019-04-01T12:02:42.564Z,98838.00
2019-04-01T12:05:11.834Z,98824.00
2019-04-01T12:07:41.042Z,98828.00
2019-04-01T12:10:10.185Z,98812.00
2019-04-01T12:12:39.316Z,98820.00
2019-04-01T12:15:11.637Z,98808.00
2019-04-01T12:17:41.650Z,98811.00
2019-04-01T12:20:10.018Z,98810.00
2019-04-01T12:22:40.653Z,98794.00
2019-04-01T12:25:09.830Z,98801.00
2019-04-01T12:27:39.024Z,98810.00
2019-04-01T12:30:09.808Z,98785.00
2019-04-01T12:32:40.082Z,98786.00
2019-04-01T12:35:09.104Z,98793.00
2019-04-01T12:37:38.318Z,98782.00
2019-04-01T12:40:07.625Z,98779.00
2019-04-01T12:42:36.977Z,98772.00
2019-04-01T12:45:06.831Z,98771.00
2019-04-01T12:47:36.258Z,98759.00
2019-04-01T12:50:05.630Z,98761.00
2019-04-01T12:52:34.847Z,98761.00
2019-04-01T12:55:04.740Z,98760.00
2019-04-01T12:57:33.780Z,98749.00
2019-04-01T13:00:41.632Z,98748.00
2019-04-01T13:03:10.628Z,98746.00
2019-04-01T13:05:39.849Z,98743.00
2019-04-01T13:08:08.985Z,98740.00
2019-04-01T13:10:38.239Z,98733.00
2019-04-01T13:13:07.574Z,98728.00
2019-04-01T13:15:37.046Z,98725.00
2019-04-01T13:18:06.415Z,98726.00
2019-04-01T13:20:37.919Z,98722.00
2019-04-01T13:23:07.108Z,98712.00
2019-04-01T13:25:36.251Z,98718.00
2019-04-01T13:28:05.795Z,98719.00
2019-04-01T13:30:34.984Z,98704.00
2019-04-01T13:33:04.344Z,98711.00
2019-04-01T13:35:33.876Z,98698.00
2019-04-01T13:38:03.010Z,98700.00
2019-04-01T13:40:32.067Z,98695.00
2019-04-01T13:43:04.409Z,98696.00
2019-04-01T13:45:32.108Z,98692.00
2019-04-01T13:48:01.611Z,98693.00
2019-04-01T13:50:30.725Z,98684.00
2019-04-01T13:53:00.896Z,98673.00
2019-04-01T13:55:30.096Z,98682.00
2019-04-01T13:57:59.156Z,98674.00
2019-04-01T14:00:28.610Z,98672.00
2019-04-01T14:02:57.839Z,98667.00
2019-04-01T14:05:26.906Z,98662.00
2019-04-01T14:07:56.370Z,98665.00
2019-04-01T14:10:25.396Z,98666.00
2019-04-01T14:12:54.532Z,98664.00
2019-04-01T14:15:23.729Z,98657.00
2019-04-01T14:17:52.899Z,98647.00
2019-04-01T14:20:21.960Z,98655.00
2019-04-01T14:22:53.590Z,98643.00
2019-04-01T14:25:23.184Z,98654.00
2019-04-01T14:27:52.317Z,98643.00
2019-04-01T14:30:21.627Z,98639.00
2019-04-01T14:32:50.995Z,98635.00
2019-04-01T14:35:23.553Z,98632.00
2019-04-01T14:37:51.416Z,98628.00
2019-04-01T14:40:20.411Z,98626.00
2019-04-01T14:42:49.500Z,98627.00
2019-04-01T14:45:18.661Z,98635.00
2019-04-01T14:47:57.058Z,98623.00
2019-04-01T14:50:18.706Z,98618.00
2019-04-01T14:52:47.746Z,98625.00
2019-04-01T14:55:17.222Z,98624.00
2019-04-01T14:57:46.275Z,98623.00
2019-04-01T15:00:15.339Z,98626.00
2019-04-01T15:02:44.341Z,98622.00
2019-04-01T15:05:13.703Z,98616.00
2019-04-01T15:07:42.850Z,98620.00
2019-04-01T15:10:12.046Z,98617.00
2019-04-01T15:12:41.065Z,98621.00
2019-04-01T15:15:10.653Z,98620.00
2019-04-01T15:17:39.686Z,98608.00
2019-04-01T15:20:08.681Z,98618.00
2019-04-01T15:22:37.812Z,98597.00
2019-04-01T15:25:07.135Z,98604.00
2019-04-01T15:27:36.304Z,98605.00
2019-04-01T15:30:06.088Z,98599.00
2019-04-01T15:32:35.324Z,98597.00
2019-04-01T15:35:05.088Z,98598.00
2019-04-01T15:40:09.813Z,98596.00
2019-04-01T15:42:38.987Z,98586.00
2019-04-01T15:45:08.381Z,98587.00
2019-04-01T15:47:38.358Z,98586.00
2019-04-01T15:50:09.309Z,98589.00
2019-04-01T15:52:38.715Z,98586.00
2019-04-01T15:55:07.947Z,98584.00
2019-04-01T15:57:37.135Z,98584.00
2019-04-01T16:00:06.396Z,98574.00
2019-04-01T16:02:38.360Z,98585.00
2019-04-01T16:05:07.645Z,98578.00
2019-04-01T16:07:36.763Z,98573.00
2019-04-01T16:10:06.107Z,98581.00
2019-04-01T16:12:35.270Z,98564.00
2019-04-01T16:15:05.005Z,98580.00
2019-04-01T16:17:34.230Z,98573.00
2019-04-01T16:20:03.529Z,98563.00
2019-04-01T16:22:32.687Z,98566.00
2019-04-01T16:25:01.731Z,98572.00
2019-04-01T16:27:30.848Z,98562.00
2019-04-01T16:30:00.269Z,98574.00
2019-04-01T16:32:29.657Z,98562.00
2019-04-01T16:34:58.701Z,98575.00
2019-04-01T16:37:27.770Z,98562.00
2019-04-01T16:39:56.933Z,98568.00
2019-04-01T16:42:26.444Z,98571.00
2019-04-01T16:44:55.585Z,98565.00
2019-04-01T16:47:24.677Z,98570.00
2019-04-01T16:49:53.808Z,98566.00
2019-04-01T16:52:22.809Z,98568.00
2019-04-01T16:54:58.100Z,98570.00
2019-04-01T16:57:27.306Z,98569.00
2019-04-01T16:59:57.135Z,98568.00
2019-04-01T17:02:26.375Z,98558.00
2019-04-01T17:04:55.501Z,98551.00
2019-04-01T17:07:24.544Z,98565.00
2019-04-01T17:09:53.900Z,98561.00
2019-04-01T17:12:23.045Z,98559.00
2019-04-01T17:14:52.973Z,98560.00
2019-04-01T17:17:22.497Z,98570.00
2019-04-01T17:19:51.525Z,98564.00
2019-04-01T17:22:20.645Z,98558.00
2019-04-01T17:24:49.964Z,98564.00
2019-04-01T17:27:19.115Z,98569.00
2019-04-01T17:29:48.210Z,98560.00
2019-04-01T17:32:17.398Z,98565.00
2019-04-01T17:34:46.639Z,98560.00
2019-04-01T17:37:15.709Z,98561.00
2019-04-01T17:39:44.975Z,98566.00
2019-04-01T17:42:14.118Z,98569.00
2019-04-01T17:44:43.279Z,98561.00
2019-04-01T17:47:12.591Z,98561.00
2019-04-01T17:49:41.719Z,98569.00
2019-04-01T17:52:11.008Z,98576.00
2019-04-01T17:54:40.475Z,98578.00
2019-04-01T17:57:09.807Z,98577.00
2019-04-01T17:59:39.090Z,98582.00
2019-04-01T18:02:13.177Z,98570.00
2019-04-01T18:04:42.362Z,98568.00
2019-04-01T18:07:11.570Z,98564.00
2019-04-01T18:09:40.675Z,98563.00
2019-04-01T18:12:09.743Z,98569.00
2019-04-01T18:14:39.331Z,98574.00
2019-04-01T18:17:08.411Z,98572.00
2019-04-01T18:19:37.540Z,98570.00
2019-04-01T18:22:09.851Z,98574.00
2019-04-01T18:24:37.773Z,98577.00
2019-04-01T18:27:06.861Z,98586.00
2019-04-01T18:29:36.043Z,98561.00
2019-04-01T18:32:05.353Z,98585.00
2019-04-01T18:34:34.516Z,98593.00
2019-04-01T18:37:03.728Z,98593.00
2019-04-01T18:39:47.182Z,98597.00
2019-04-01T18:42:03.687Z,98597.00
2019-04-01T18:44:32.760Z,98592.00
2019-04-01T18:47:03.891Z,98600.00
2019-04-01T18:49:32.618Z,98606.00
2019-04-01T18:52:01.691Z,98601.00
2019-04-01T18:54:30.706Z,98614.00
2019-04-01T18:57:00.999Z,98610.00
2019-04-01T18:59:30.909Z,98616.00
2019-04-01T19:02:00.181Z,98606.00
2019-04-01T19:04:29.771Z,98607.00
2019-04-01T19:06:59.200Z,98608.00
2019-04-01T19:09:28.207Z,98602.00
2019-04-01T19:12:03.850Z,98606.00
2019-04-01T19:14:28.361Z,98609.00
2019-04-01T19:16:57.526Z,98615.00
2019-04-01T19:19:26.599Z,98614.00
2019-04-01T19:21:55.789Z,98616.00
2019-04-01T19:24:24.874Z,98620.00
2019-04-01T19:26:54.007Z,98625.00
2019-04-01T19:29:23.206Z,98622.00
2019-04-01T19:31:52.363Z,98614.00
2019-04-01T19:34:21.609Z,98624.00
2019-04-01T19:36:50.757Z,98618.00
2019-04-01T19:39:20.054Z,98620.00
2019-04-01T19:41:49.435Z,98623.00
2019-04-01T19:44:18.582Z,98631.00
2019-04-01T19:46:47.735Z,98633.00
2019-04-01T19:49:16.875Z,98630.00
2019-04-01T19:51:46.014Z,98631.00
2019-04-01T19:54:15.101Z,98640.00
2019-04-01T19:56:44.252Z,98638.00
2019-04-01T19:59:13.633Z,98635.00
2019-04-01T20:01:42.722Z,98639.00
2019-04-01T20:04:11.810Z,98636.00
2019-04-01T20:06:41.019Z,98634.00
2019-04-01T20:09:10.313Z,98623.00
2019-04-01T20:11:39.462Z,98621.00
2019-04-01T20:14:08.608Z,98629.00
2019-04-01T20:16:37.608Z,98627.00
2019-04-01T20:19:06.685Z,98628.00
2019-04-01T20:21:35.891Z,98627.00
2019-04-01T20:24:05.093Z,98618.00
2019-04-01T20:26:34.145Z,98611.00
2019-04-01T20:29:03.309Z,98614.00
2019-04-01T20:31:32.318Z,98612.00
2019-04-01T20:34:04.213Z,98617.00
2019-04-01T20:36:32.230Z,98622.00
2019-04-01T20:39:01.574Z,98615.00
2019-04-01T20:41:30.991Z,98616.00
2019-04-01T20:44:00.019Z,98615.00
2019-04-01T20:46:29.249Z,98613.00
2019-04-01T20:48:58.248Z,98612.00
2019-04-01T20:51:27.413Z,98610.00
2019-04-01T20:53:56.496Z,98609.00
2019-04-01T20:56:25.782Z,98610.00
2019-04-01T20:58:56.016Z,98609.00
2019-04-01T21:01:25.373Z,98599.00
2019-04-01T21:03:54.467Z,98602.00
2019-04-01T21:06:23.715Z,98595.00
2019-04-01T21:08:52.794Z,98593.00
2019-04-01T21:11:22.090Z,98583.00
2019-04-01T21:13:51.081Z,98582.00
2019-04-01T21:16:20.251Z,98574.00
2019-04-01T21:18:49.884Z,98577.00
2019-04-01T21:21:19.117Z,98591.00
2019-04-01T21:23:48.108Z,98582.00
2019-04-01T21:26:17.238Z,98583.00
2019-04-01T21:28:46.698Z,98568.00
2019-04-01T21:31:16.352Z,98583.00
2019-04-01T21:33:46.438Z,98579.00
2019-04-01T21:36:16.102Z,98566.00
2019-04-01T21:38:45.177Z,98572.00
2019-04-01T21:41:14.296Z,98567.00
2019-04-01T21:43:43.299Z,98571.00
2019-04-01T21:46:13.203Z,98567.00
2019-04-01T21:48:43.549Z,98557.00
2019-04-01T21:51:12.534Z,98560.00
2019-04-01T21:53:41.624Z,98555.00
2019-04-01T21:56:10.774Z,98545.00
2019-04-01T21:58:39.826Z,98549.00
2019-04-01T22:01:09.498Z,98554.00
2019-04-01T22:03:38.609Z,98548.00
2019-04-01T22:06:07.791Z,98553.00
2019-04-01T22:08:36.932Z,98543.00
2019-04-01T22:11:05.993Z,98545.00
2019-04-01T22:13:35.284Z,98539.00
2019-04-01T22:16:04.354Z,98548.00
2019-04-01T22:18:33.425Z,98545.00
2019-04-01T22:21:02.476Z,98538.00
2019-04-01T22:23:31.542Z,98544.00
2019-04-01T22:26:00.797Z,98537.00
2019-04-01T22:28:29.819Z,98527.00
2019-04-01T22:30:58.875Z,98526.00
2019-04-01T22:33:28.045Z,98520.00
2019-04-01T22:35:57.195Z,98527.00
2019-04-01T22:38:26.357Z,98519.00
2019-04-01T22:40:55.429Z,98523.00
2019-04-01T22:43:25.411Z,98519.00
2019-04-01T22:45:57.012Z,98512.00
2019-04-01T22:48:26.501Z,98513.00
2019-04-01T22:50:57.669Z,98508.00
2019-04-01T22:53:26.371Z,98513.00
2019-04-01T22:55:56.353Z,98506.00
2019-04-01T22:58:26.359Z,98500.00
2019-04-01T23:00:55.575Z,98510.00
2019-04-01T23:03:24.635Z,98506.00
2019-04-01T23:05:55.623Z,98502.00
2019-04-01T23:08:24.566Z,98509.00
2019-04-01T23:10:53.724Z,98499.00
2019-04-01T23:13:22.842Z,98492.00
2019-04-01T23:15:52.054Z,98483.00
2019-04-01T23:18:21.069Z,98485.00
2019-04-01T23:20:50.201Z,98488.00
2019-04-01T23:23:19.333Z,98486.00
2019-04-01T23:25:48.371Z,98488.00
2019-04-01T23:28:17.432Z,98485.00
2019-04-01T23:30:46.677Z,98484.00
2019-04-01T23:33:16.325Z,98481.00
2019-04-01T23:35:45.766Z,98479.00
2019-04-01T23:38:14.822Z,98488.00
2019-04-01T23:40:43.976Z,98478.00
2019-04-01T23:43:13.187Z,98475.00
2019-04-01T23:45:42.412Z,98468.00
2019-04-01T23:48:11.637Z,98464.00
2019-04-01T23:50:41.121Z,98464.00
2019-04-01T23:53:10.274Z,98471.00
2019-04-01T23:55:39.488Z,98464.00
2019-04-01T23:58:08.476Z,98468.00
